createdAt,value
2019-03-12T00:00:17.572Z,12.77
2019-03-12T00:02:47.097Z,14.07
2019-03-12T00:05:16.335Z,13.90
2019-03-12T00:07:45.630Z,13.20
2019-03-12T00:10:14.935Z,12.70
2019-03-12T00:12:44.232Z,13.30
2019-03-12T00:15:13.450Z,13.77
2019-03-12T00:17:42.587Z,13.90
2019-03-12T00:20:12.021Z,12.87
2019-03-12T00:22:41.084Z,11.97
2019-03-12T00:25:10.353Z,12.03
2019-03-12T00:27:39.615Z,10.90
2019-03-12T00:30:10.721Z,11.33
2019-03-12T00:32:39.927Z,9.83
2019-03-12T00:35:09.565Z,10.17
2019-03-12T00:37:38.689Z,10.30
2019-03-12T00:40:09.620Z,8.67
2019-03-12T00:42:38.819Z,8.43
2019-03-12T00:45:10.612Z,7.90
2019-03-12T00:47:39.825Z,6.80
2019-03-12T00:50:10.646Z,6.30
2019-03-12T00:52:39.784Z,6.17
2019-03-12T00:55:09.866Z,5.30
2019-03-12T00:57:39.050Z,4.60
2019-03-12T01:00:11.162Z,4.43
2019-03-12T01:02:40.349Z,4.53
2019-03-12T01:05:09.679Z,4.00
2019-03-12T01:07:38.912Z,3.87
2019-03-12T01:10:14.051Z,3.57
2019-03-12T01:12:43.578Z,3.20
2019-03-12T01:15:14.083Z,3.30
2019-03-12T01:17:43.377Z,3.30
2019-03-12T01:20:14.792Z,3.50
2019-03-12T01:22:44.348Z,4.20
2019-03-12T01:25:14.142Z,3.07
2019-03-12T01:27:43.361Z,3.43
2019-03-12T01:30:18.925Z,3.87
2019-03-12T01:32:48.063Z,3.40
2019-03-12T01:35:17.282Z,3.70
2019-03-12T01:37:46.413Z,3.60
2019-03-12T01:40:15.982Z,3.50
2019-03-12T01:42:45.211Z,3.50
2019-03-12T01:45:15.138Z,3.53
2019-03-12T01:47:44.594Z,3.33
2019-03-12T01:50:15.438Z,3.53
2019-03-12T01:52:44.633Z,3.73
2019-03-12T01:55:15.032Z,3.60
2019-03-12T01:57:44.263Z,3.43
2019-03-12T02:00:19.352Z,2.90
2019-03-12T02:02:48.641Z,3.57
2019-03-12T02:05:17.931Z,3.50
2019-03-12T02:07:47.356Z,3.50
2019-03-12T02:10:16.548Z,3.37
2019-03-12T02:12:45.737Z,3.47
2019-03-12T02:15:16.146Z,3.40
2019-03-12T02:17:45.415Z,3.33
2019-03-12T02:20:17.458Z,3.17
2019-03-12T02:22:46.648Z,3.30
2019-03-12T02:25:20.310Z,3.17
2019-03-12T02:27:49.478Z,3.50
2019-03-12T02:30:20.643Z,3.27
2019-03-12T02:32:49.853Z,3.20
2019-03-12T02:35:19.078Z,3.17
2019-03-12T02:37:48.179Z,3.30
2019-03-12T02:40:17.486Z,3.17
2019-03-12T02:42:46.816Z,2.90
2019-03-12T02:45:17.221Z,2.83
2019-03-12T02:47:46.535Z,3.13
2019-03-12T02:50:16.397Z,3.30
2019-03-12T02:52:45.498Z,3.13
2019-03-12T02:55:15.320Z,3.00
2019-03-12T02:57:44.533Z,2.87
2019-03-12T03:00:20.071Z,3.03
2019-03-12T03:02:49.443Z,3.20
2019-03-12T03:05:18.900Z,2.93
2019-03-12T03:07:50.121Z,3.07
2019-03-12T03:10:19.412Z,2.83
2019-03-12T03:12:48.623Z,2.47
2019-03-12T03:15:20.442Z,3.03
2019-03-12T03:17:50.051Z,2.70
2019-03-12T03:20:19.451Z,2.97
2019-03-12T03:22:48.574Z,2.90
2019-03-12T03:25:17.783Z,2.83
2019-03-12T03:27:47.008Z,3.10
2019-03-12T03:30:21.928Z,3.43
2019-03-12T03:32:51.124Z,3.60
2019-03-12T03:35:20.347Z,3.50
2019-03-12T03:37:49.461Z,3.23
2019-03-12T03:40:20.821Z,3.43
2019-03-12T03:42:50.044Z,3.13
2019-03-12T03:45:19.431Z,3.50
2019-03-12T03:47:48.660Z,3.60
2019-03-12T03:50:18.508Z,3.30
2019-03-12T03:52:47.618Z,3.63
2019-03-12T03:55:21.116Z,3.10
2019-03-12T03:57:50.560Z,3.83
2019-03-12T04:00:24.547Z,3.93
2019-03-12T04:02:53.674Z,3.70
2019-03-12T04:05:22.932Z,3.30
2019-03-12T04:07:52.104Z,3.50
2019-03-12T04:10:21.320Z,3.50
2019-03-12T04:12:50.484Z,3.60
2019-03-12T04:15:19.971Z,3.50
2019-03-12T04:17:49.156Z,3.57
2019-03-12T04:20:21.091Z,3.50
2019-03-12T04:22:50.221Z,3.50
2019-03-12T04:25:19.405Z,3.30
2019-03-12T04:27:48.637Z,3.33
2019-03-12T04:30:19.692Z,3.53
2019-03-12T04:32:48.982Z,3.20
2019-03-12T04:35:23.799Z,3.60
2019-03-12T04:37:52.910Z,3.40
2019-03-12T04:40:22.106Z,3.33
2019-03-12T04:42:51.330Z,3.20
2019-03-12T04:45:20.523Z,3.40
2019-03-12T04:47:49.671Z,3.37
2019-03-12T04:50:18.899Z,3.40
2019-03-12T04:52:47.950Z,3.20
2019-03-12T04:55:17.358Z,4.03
2019-03-12T04:57:46.517Z,3.23
2019-03-12T05:00:20.551Z,3.57
2019-03-12T05:02:49.775Z,3.80
2019-03-12T05:05:19.119Z,3.60
2019-03-12T05:07:48.315Z,3.57
2019-03-12T05:10:17.590Z,4.00
2019-03-12T05:12:46.746Z,4.30
2019-03-12T05:15:17.143Z,3.90
2019-03-12T05:17:46.345Z,3.83
2019-03-12T05:20:16.282Z,5.23
2019-03-12T05:22:45.864Z,4.60
2019-03-12T05:25:15.764Z,4.40
2019-03-12T05:27:45.000Z,4.40
2019-03-12T05:30:20.522Z,4.10
2019-03-12T05:32:49.680Z,4.80
2019-03-12T05:35:19.008Z,4.77
2019-03-12T05:37:48.204Z,4.50
2019-03-12T05:40:17.767Z,5.10
2019-03-12T05:42:46.936Z,5.17
2019-03-12T05:45:17.653Z,4.60
2019-03-12T05:47:47.037Z,4.90
2019-03-12T05:50:17.559Z,4.87
2019-03-12T05:52:49.048Z,4.70
2019-03-12T05:55:17.975Z,4.60
2019-03-12T05:57:47.226Z,5.00
2019-03-12T06:00:25.017Z,4.97
2019-03-12T06:02:54.198Z,4.80
2019-03-12T06:05:23.274Z,5.40
2019-03-12T06:07:55.348Z,5.10
2019-03-12T06:10:23.444Z,5.00
2019-03-12T06:12:52.579Z,5.07
2019-03-12T06:15:21.777Z,5.57
2019-03-12T06:17:50.942Z,5.37
2019-03-12T06:20:19.996Z,5.20
2019-03-12T06:22:49.055Z,5.47
2019-03-12T06:25:18.286Z,5.60
2019-03-12T06:27:47.401Z,5.70
2019-03-12T06:30:18.107Z,5.37
2019-03-12T06:32:51.945Z,5.43
2019-03-12T06:35:31.506Z,5.93
2019-03-12T06:38:02.303Z,5.67
2019-03-12T06:40:38.957Z,5.10
2019-03-12T06:43:09.835Z,4.73
2019-03-12T06:45:52.523Z,5.50
2019-03-12T06:48:23.304Z,5.30
2019-03-12T06:51:03.045Z,4.80
2019-03-12T06:53:50.141Z,5.23
2019-03-12T06:56:37.355Z,4.97
2019-03-12T06:59:10.939Z,4.87
2019-03-12T07:01:44.481Z,5.33
2019-03-12T07:04:31.630Z,5.50
2019-03-12T07:07:17.468Z,4.93
2019-03-12T07:10:03.633Z,4.80
2019-03-12T07:12:36.682Z,5.80
2019-03-12T07:15:09.818Z,5.30
2019-03-12T07:17:49.724Z,4.70
2019-03-12T07:20:23.328Z,4.97
2019-03-12T07:22:54.181Z,4.87
2019-03-12T07:25:30.790Z,4.60
2019-03-12T07:28:01.588Z,5.20
2019-03-12T07:30:32.420Z,5.10
2019-03-12T07:33:18.489Z,4.60
2019-03-12T07:36:05.514Z,5.57
2019-03-12T07:38:39.170Z,5.10
2019-03-12T07:41:32.477Z,4.97
2019-03-12T07:44:03.503Z,5.23
2019-03-12T07:46:40.259Z,87.00
2019-03-12T07:49:27.419Z,6.60
2019-03-12T07:52:00.790Z,5.33
2019-03-12T07:54:34.327Z,5.20
2019-03-12T07:57:05.123Z,5.40
2019-03-12T07:59:38.359Z,6.07
2019-03-12T08:02:12.154Z,5.97
2019-03-12T08:04:48.686Z,6.40
2019-03-12T08:07:22.002Z,6.03
2019-03-12T08:09:52.835Z,5.70
2019-03-12T08:12:23.681Z,6.07
2019-03-12T08:15:22.555Z,5.50
2019-03-12T08:17:58.133Z,6.33
2019-03-12T08:20:29.045Z,6.57
2019-03-12T08:23:05.367Z,6.47
2019-03-12T08:25:43.932Z,7.17
2019-03-12T08:28:17.358Z,6.07
2019-03-12T08:31:00.148Z,6.00
2019-03-12T08:33:30.859Z,6.23
2019-03-12T08:36:01.623Z,5.77
2019-03-12T08:38:41.332Z,5.40
2019-03-12T08:41:14.576Z,6.57
2019-03-12T08:44:03.604Z,6.50
2019-03-12T08:46:37.011Z,6.30
2019-03-12T08:49:07.855Z,5.07
2019-03-12T08:51:44.499Z,5.80
2019-03-12T08:54:24.311Z,6.07
2019-03-12T08:56:55.121Z,5.87
2019-03-12T08:59:34.604Z,7.90
2019-03-12T09:02:21.761Z,6.67
2019-03-12T09:05:10.414Z,5.70
2019-03-12T09:07:47.002Z,6.30
2019-03-12T09:10:20.431Z,5.50
2019-03-12T09:12:51.191Z,5.60
2019-03-12T09:15:30.858Z,6.10
2019-03-12T09:18:07.550Z,6.43
2019-03-12T09:20:38.370Z,6.00
2019-03-12T09:23:24.255Z,6.30
2019-03-12T09:26:03.820Z,8.00
2019-03-12T09:28:37.534Z,6.77
2019-03-12T09:31:11.481Z,6.00
2019-03-12T09:33:42.264Z,6.10
2019-03-12T09:36:15.565Z,6.20
2019-03-12T09:38:52.118Z,6.00
2019-03-12T09:41:35.092Z,6.30
2019-03-12T09:44:09.452Z,6.00
2019-03-12T09:46:46.299Z,7.27
2019-03-12T09:49:29.277Z,6.53
2019-03-12T09:52:16.086Z,6.60
2019-03-12T09:54:52.629Z,6.07
2019-03-12T09:57:26.238Z,6.33
2019-03-12T10:00:16.740Z,5.80
2019-03-12T10:02:50.480Z,5.90
2019-03-12T10:05:36.463Z,6.53
2019-03-12T10:08:07.315Z,6.10
2019-03-12T10:10:47.296Z,6.83
2019-03-12T10:13:23.749Z,5.93
2019-03-12T10:16:00.283Z,5.37
2019-03-12T10:18:31.115Z,5.53
2019-03-12T10:21:01.970Z,6.20
2019-03-12T10:23:47.869Z,6.77
2019-03-12T10:26:33.801Z,6.30
2019-03-12T10:29:20.470Z,6.60
2019-03-12T10:32:03.105Z,6.73
2019-03-12T10:34:33.986Z,7.10
2019-03-12T10:37:12.497Z,6.33
2019-03-12T10:40:02.516Z,7.80
2019-03-12T10:42:51.528Z,7.10
2019-03-12T10:45:24.918Z,7.10
2019-03-12T10:47:55.707Z,7.60
2019-03-12T10:50:24.948Z,6.97
2019-03-12T10:52:54.383Z,7.03
2019-03-12T10:55:23.619Z,6.80
2019-03-12T10:57:53.409Z,6.57
2019-03-12T11:00:22.939Z,7.93
2019-03-12T11:02:52.150Z,8.67
2019-03-12T11:05:21.589Z,6.87
2019-03-12T11:07:50.888Z,7.10
2019-03-12T11:10:20.575Z,6.73
2019-03-12T11:12:49.771Z,6.47
2019-03-12T11:15:19.001Z,6.63
2019-03-12T11:17:49.886Z,6.03
2019-03-12T11:20:22.028Z,5.60
2019-03-12T11:22:51.341Z,6.00
2019-03-12T11:25:27.451Z,6.60
2019-03-12T11:27:51.603Z,5.70
2019-03-12T11:30:21.409Z,5.97
2019-03-12T11:32:50.615Z,6.00
2019-03-12T11:35:20.352Z,5.67
2019-03-12T11:37:49.704Z,5.20
2019-03-12T11:40:24.437Z,6.00
2019-03-12T11:42:54.051Z,6.37
2019-03-12T11:45:35.448Z,6.30
2019-03-12T11:47:54.528Z,6.80
2019-03-12T11:50:25.226Z,5.67
2019-03-12T11:52:58.330Z,4.70
2019-03-12T11:55:25.505Z,5.37
2019-03-12T11:57:54.782Z,5.70
2019-03-12T12:00:27.740Z,5.03
2019-03-12T12:03:00.351Z,5.30
2019-03-12T12:05:29.023Z,5.20
2019-03-12T12:07:58.274Z,5.57
2019-03-12T12:10:27.710Z,6.07
2019-03-12T12:12:56.909Z,6.00
2019-03-12T12:15:26.169Z,4.87
2019-03-12T12:17:55.369Z,5.00
2019-03-12T12:20:29.901Z,6.23
2019-03-12T12:22:55.459Z,5.47
2019-03-12T12:25:24.708Z,7.60
2019-03-12T12:27:53.944Z,5.40
2019-03-12T12:30:24.891Z,5.50
2019-03-12T12:32:54.104Z,5.37
2019-03-12T12:35:23.312Z,4.80
2019-03-12T12:37:52.574Z,4.80
2019-03-12T12:40:22.875Z,4.87
2019-03-12T12:42:52.088Z,5.00
2019-03-12T12:45:35.138Z,4.97
2019-03-12T12:48:04.340Z,4.90
2019-03-12T12:50:33.762Z,5.30
2019-03-12T12:53:03.197Z,5.10
2019-03-12T12:55:32.410Z,4.77
2019-03-12T12:58:01.630Z,4.67
2019-03-12T13:00:30.945Z,5.00
2019-03-12T13:03:00.304Z,4.37
2019-03-12T13:05:29.588Z,4.67
2019-03-12T13:07:58.865Z,4.00
2019-03-12T13:10:31.964Z,4.47
2019-03-12T13:13:01.444Z,4.30
2019-03-12T13:15:30.722Z,3.80
2019-03-12T13:17:59.937Z,5.30
2019-03-12T13:20:29.183Z,4.53
2019-03-12T13:22:58.953Z,4.30
2019-03-12T13:25:28.215Z,3.90
2019-03-12T13:27:57.498Z,4.10
2019-03-12T13:30:27.355Z,5.17
2019-03-12T13:32:57.557Z,4.10
2019-03-12T13:35:26.936Z,4.00
2019-03-12T13:37:56.284Z,4.40
2019-03-12T13:40:28.191Z,4.50
2019-03-12T13:42:57.385Z,4.20
2019-03-12T13:45:28.927Z,4.50
2019-03-12T13:47:58.529Z,4.30
2019-03-12T13:50:28.462Z,4.63
2019-03-12T13:52:58.067Z,4.10
2019-03-12T13:55:27.569Z,4.67
2019-03-12T13:57:56.876Z,5.17
2019-03-12T14:00:32.904Z,4.60
2019-03-12T14:03:00.628Z,4.30
2019-03-12T14:05:29.868Z,4.90
2019-03-12T14:07:59.206Z,4.60
2019-03-12T14:10:28.717Z,8.93
2019-03-12T14:12:58.625Z,4.90
2019-03-12T14:15:35.449Z,4.07
2019-03-12T14:18:05.039Z,4.53
2019-03-12T14:20:48.954Z,7.50
2019-03-12T14:23:21.073Z,4.03
2019-03-12T14:25:50.991Z,4.07
2019-03-12T14:28:20.583Z,4.30
2019-03-12T14:30:49.887Z,4.63
2019-03-12T14:33:19.086Z,4.37
2019-03-12T14:35:52.001Z,12.70
2019-03-12T14:38:19.646Z,5.53
2019-03-12T14:40:49.115Z,4.80
2019-03-12T14:43:18.617Z,5.00
2019-03-12T14:45:50.009Z,5.40
2019-03-12T14:48:50.803Z,4.90
2019-03-12T14:51:45.864Z,5.10
2019-03-12T14:54:15.099Z,5.00
2019-03-12T14:56:44.319Z,5.73
2019-03-12T14:59:14.076Z,4.90
2019-03-12T15:01:43.349Z,38.17
2019-03-12T15:04:14.938Z,5.27
2019-03-12T15:06:43.446Z,3.90
2019-03-12T15:09:14.344Z,3.83
2019-03-12T15:11:44.575Z,4.53
2019-03-12T15:14:13.769Z,3.90
2019-03-12T15:16:43.035Z,3.80
2019-03-12T15:19:12.355Z,3.50
2019-03-12T15:21:41.598Z,4.00
2019-03-12T15:24:10.869Z,4.40
2019-03-12T15:26:40.123Z,6.77
2019-03-12T15:29:09.318Z,4.97
2019-03-12T15:31:38.684Z,4.90
2019-03-12T15:34:07.884Z,4.17
2019-03-12T15:36:37.187Z,3.83
2019-03-12T15:39:07.468Z,4.40
2019-03-12T15:41:36.694Z,4.50
2019-03-12T15:44:05.796Z,3.87
2019-03-12T15:46:35.206Z,3.60
2019-03-12T15:49:04.509Z,3.80
2019-03-12T15:51:33.641Z,4.00
2019-03-12T15:54:02.831Z,43.10
2019-03-12T15:56:32.049Z,5.10
2019-03-12T15:59:01.277Z,4.37
2019-03-12T16:01:30.524Z,3.73
2019-03-12T16:03:59.913Z,4.17
2019-03-12T16:06:29.285Z,4.60
2019-03-12T16:08:58.528Z,2.93
2019-03-12T16:11:30.993Z,2.97
2019-03-12T16:13:58.836Z,3.47
2019-03-12T16:16:28.237Z,4.50
2019-03-12T16:18:57.464Z,27.43
2019-03-12T16:21:26.717Z,6.73
2019-03-12T16:23:55.942Z,4.27
2019-03-12T16:26:25.238Z,4.20
2019-03-12T16:28:54.528Z,4.83
2019-03-12T16:31:23.859Z,4.20
2019-03-12T16:33:52.991Z,6.00
2019-03-12T16:36:22.252Z,5.23
2019-03-12T16:38:51.635Z,6.70
2019-03-12T16:41:20.920Z,6.47
2019-03-12T16:43:50.207Z,6.03
2019-03-12T16:46:19.450Z,19.70
2019-03-12T16:48:48.781Z,9.97
2019-03-12T16:51:17.985Z,6.30
2019-03-12T16:53:47.294Z,5.67
2019-03-12T16:56:16.438Z,6.13
2019-03-12T16:58:45.717Z,5.70
2019-03-12T17:01:15.025Z,5.53
2019-03-12T17:03:44.304Z,6.60
2019-03-12T17:06:13.518Z,8.37
2019-03-12T17:08:42.779Z,10.80
2019-03-12T17:11:12.108Z,12.37
2019-03-12T17:13:41.320Z,13.30
2019-03-12T17:16:10.639Z,13.17
2019-03-12T17:18:39.938Z,15.53
2019-03-12T17:21:09.238Z,13.23
2019-03-12T17:23:38.554Z,13.27
2019-03-12T17:26:07.858Z,14.27
2019-03-12T17:28:36.909Z,14.30
2019-03-12T17:31:06.143Z,16.67
2019-03-12T17:33:35.356Z,16.77
2019-03-12T17:36:04.573Z,16.87
2019-03-12T17:38:45.855Z,17.87
2019-03-12T17:41:04.735Z,18.13
2019-03-12T17:43:33.948Z,17.30
2019-03-12T17:46:03.047Z,17.57
2019-03-12T17:48:32.172Z,21.03
2019-03-12T17:51:01.386Z,17.03
2019-03-12T17:53:30.691Z,17.83
2019-03-12T17:55:59.919Z,15.70
2019-03-12T17:58:30.513Z,18.17
2019-03-12T18:00:59.838Z,21.00
2019-03-12T18:03:28.976Z,32.60
2019-03-12T18:05:58.309Z,27.60
2019-03-12T18:08:27.597Z,23.27
2019-03-12T18:10:56.814Z,20.73
2019-03-12T18:13:26.026Z,19.37
2019-03-12T18:15:55.262Z,20.67
2019-03-12T18:18:24.493Z,24.30
2019-03-12T18:20:53.708Z,18.77
2019-03-12T18:23:22.870Z,17.40
2019-03-12T18:25:52.478Z,14.97
2019-03-12T18:28:21.701Z,18.87
2019-03-12T18:30:50.952Z,18.20
2019-03-12T18:33:20.171Z,20.27
2019-03-12T18:35:49.383Z,33.83
2019-03-12T18:38:18.600Z,44.10
2019-03-12T18:40:47.811Z,34.63
2019-03-12T18:43:17.092Z,38.87
2019-03-12T18:45:46.351Z,27.70
2019-03-12T18:48:15.566Z,28.20
2019-03-12T18:50:44.773Z,27.10
2019-03-12T18:53:13.926Z,31.83
2019-03-12T18:55:44.951Z,37.73
2019-03-12T18:58:14.267Z,41.27
2019-03-12T19:00:49.200Z,46.03
2019-03-12T19:03:18.406Z,41.90
2019-03-12T19:05:47.662Z,34.63
2019-03-12T19:08:16.916Z,34.70
2019-03-12T19:10:46.131Z,41.00
2019-03-12T19:13:15.343Z,38.13
2019-03-12T19:15:44.600Z,38.33
2019-03-12T19:18:13.906Z,34.30
2019-03-12T19:20:43.105Z,32.20
2019-03-12T19:23:12.546Z,36.17
2019-03-12T19:25:44.731Z,32.00
2019-03-12T19:28:14.000Z,37.30
2019-03-12T19:30:43.341Z,33.03
2019-03-12T19:33:20.186Z,29.93
2019-03-12T19:35:49.500Z,32.20
2019-03-12T19:38:18.727Z,28.73
2019-03-12T19:40:56.596Z,29.07
2019-03-12T19:43:25.817Z,27.03
2019-03-12T19:45:55.037Z,33.73
2019-03-12T19:48:24.295Z,32.70
2019-03-12T19:50:53.509Z,26.70
2019-03-12T19:53:22.730Z,30.13
2019-03-12T19:55:57.802Z,30.03
2019-03-12T19:58:28.409Z,31.83
2019-03-12T20:00:58.711Z,25.57
2019-03-12T20:03:27.967Z,24.90
2019-03-12T20:05:57.128Z,30.13
2019-03-12T20:08:26.601Z,25.63
2019-03-12T20:11:18.974Z,28.93
2019-03-12T20:14:13.537Z,31.23
2019-03-12T20:17:18.929Z,27.17
2019-03-12T20:20:07.779Z,33.17
2019-03-12T20:23:14.726Z,69.27
2019-03-12T20:26:15.742Z,58.53
2019-03-12T20:29:05.671Z,60.87
2019-03-12T20:32:10.688Z,53.37
2019-03-12T20:34:53.956Z,73.03
2019-03-12T20:37:40.301Z,85.20
2019-03-12T20:40:27.327Z,83.53
2019-03-12T20:43:14.150Z,91.80
2019-03-12T20:45:54.878Z,101.87
2019-03-12T20:48:43.532Z,97.30
2019-03-12T20:51:32.368Z,77.70
2019-03-12T20:54:22.680Z,91.53
2019-03-12T20:57:12.720Z,98.90
2019-03-12T21:00:07.330Z,90.93
2019-03-12T21:02:56.133Z,65.40
2019-03-12T21:05:37.081Z,82.10
2019-03-12T21:08:26.032Z,87.93
2019-03-12T21:11:04.190Z,103.43
2019-03-12T21:13:57.470Z,114.33
2019-03-12T21:16:38.512Z,95.40
2019-03-12T21:19:27.282Z,107.83
2019-03-12T21:22:18.899Z,98.30
2019-03-12T21:25:22.866Z,103.13
2019-03-12T21:28:03.557Z,96.27
2019-03-12T21:30:32.769Z,89.40
2019-03-12T21:33:14.512Z,82.37
2019-03-12T21:35:33.171Z,95.67
2019-03-12T21:38:02.463Z,89.90
2019-03-12T21:40:31.698Z,80.20
2019-03-12T21:43:00.913Z,88.80
2019-03-12T21:45:30.228Z,93.93
2019-03-12T21:47:59.451Z,91.63
2019-03-12T21:50:28.594Z,83.30
2019-03-12T21:52:57.928Z,84.27
2019-03-12T21:55:27.194Z,80.33
2019-03-12T21:57:56.510Z,77.80
2019-03-12T22:00:26.167Z,88.20
2019-03-12T22:02:55.396Z,74.77
2019-03-12T22:05:24.619Z,76.13
2019-03-12T22:07:53.877Z,104.97
2019-03-12T22:10:23.078Z,84.50
2019-03-12T22:12:52.248Z,121.60
2019-03-12T22:15:21.565Z,122.33
2019-03-12T22:17:50.936Z,109.37
2019-03-12T22:20:20.240Z,86.70
2019-03-12T22:22:53.881Z,88.00
2019-03-12T22:25:23.115Z,75.50
2019-03-12T22:27:52.192Z,93.40
2019-03-12T22:30:25.987Z,97.63
2019-03-12T22:32:55.231Z,93.50
2019-03-12T22:35:24.562Z,94.33
2019-03-12T22:37:53.890Z,125.53
2019-03-12T22:40:23.101Z,99.40
2019-03-12T22:42:52.179Z,87.67
2019-03-12T22:45:21.514Z,87.17
2019-03-12T22:47:50.940Z,85.83
2019-03-12T22:50:20.189Z,76.70
2019-03-12T22:52:51.017Z,63.20
2019-03-12T22:55:20.269Z,65.97
2019-03-12T22:57:49.604Z,62.80
2019-03-12T23:00:19.854Z,55.63
2019-03-12T23:02:49.141Z,54.60
2019-03-12T23:05:18.363Z,54.33
2019-03-12T23:07:47.605Z,47.30
2019-03-12T23:10:17.306Z,46.77
2019-03-12T23:12:46.985Z,48.00
2019-03-12T23:15:20.643Z,46.43
2019-03-12T23:17:49.912Z,46.13
2019-03-12T23:20:20.875Z,39.43
2019-03-12T23:22:52.146Z,39.10
2019-03-12T23:25:21.076Z,38.30
2019-03-12T23:27:50.329Z,36.97
2019-03-12T23:30:20.967Z,33.33
2019-03-12T23:32:50.189Z,35.67
2019-03-12T23:35:19.496Z,29.67
2019-03-12T23:37:48.723Z,31.03
2019-03-12T23:40:19.242Z,33.10
2019-03-12T23:42:48.437Z,38.63
2019-03-12T23:45:18.200Z,45.17
2019-03-12T23:47:50.097Z,54.70
2019-03-12T23:50:18.995Z,52.93
2019-03-12T23:52:48.309Z,54.37
2019-03-12T23:55:19.038Z,67.47
2019-03-12T23:57:48.326Z,65.33
